Time;durP1;ratioP1;P1;durP2;ratioP2;P2;SDS_P1;SDS_P2;PMS_P1;PMS_P2;Temp;Humidity;BMP_temperature;BMP_pressure;BME280_temperature;BME280_humidity;BME280_pressure;Samples;Min_cycle;Max_cycle;Signal;HPM_P1;HPM_P2
2021/01/11 00:00:39;;;;;;;;;;;12.70;48.10;;;;;;2088227;28;19925;-74
2021/01/11 00:01:44;;;;;;;;;;;12.70;48.10;;;;;;2087007;28;21327;-76
2021/01/11 00:02:47;;;;;;;;;;;12.80;48.10;;;;;;2088100;28;19929;-74
2021/01/11 00:03:48;;;;;;;;;;;12.80;48.20;;;;;;2087779;28;19961;-71
2021/01/11 00:04:50;;;;;;;;;;;12.70;47.90;;;;;;2087792;28;19925;-83
2021/01/11 00:05:52;;;;;;;;;;;12.70;48.00;;;;;;2088570;28;19926;-73
2021/01/11 00:06:54;;;;;;;;;;;12.80;47.90;;;;;;2087713;28;19932;-80
2021/01/11 00:07:56;;;;;;;;;;;12.90;47.90;;;;;;2086967;28;19932;-73
2021/01/11 00:08:57;;;;;;;;;;;12.90;47.80;;;;;;2087350;28;19956;-78
2021/01/11 00:09:59;;;;;;;;;;;12.90;47.60;;;;;;2086807;28;19925;-76
2021/01/11 00:11:00;;;;;;;;;;;12.90;47.60;;;;;;2086352;28;19979;-76
2021/01/11 00:12:02;;;;;;;;;;;12.90;47.60;;;;;;2086851;28;19926;-78
2021/01/11 00:13:03;;;;;;;;;;;12.80;47.70;;;;;;2087391;28;19932;-77
2021/01/11 00:14:05;;;;;;;;;;;12.70;47.60;;;;;;2087534;28;19929;-77
2021/01/11 00:15:10;;;;;;;;;;;12.70;47.80;;;;;;2086940;28;19955;-69
2021/01/11 00:16:12;;;;;;;;;;;12.80;47.80;;;;;;2087240;28;19925;-75
2021/01/11 00:17:15;;;;;;;;;;;12.90;47.60;;;;;;2086948;28;19925;-84
2021/01/11 00:18:18;;;;;;;;;;;12.90;47.50;;;;;;2086539;28;19968;-80
2021/01/11 00:19:20;;;;;;;;;;;12.90;47.50;;;;;;2086848;28;19933;-71
2021/01/11 00:20:21;;;;;;;;;;;12.70;47.10;;;;;;2086954;28;19925;-81
2021/01/11 00:21:23;;;;;;;;;;;12.70;47.50;;;;;;2086958;28;19925;-78
2021/01/11 00:22:25;;;;;;;;;;;12.60;47.90;;;;;;2085976;28;19925;-89
2021/01/11 00:23:26;;;;;;;;;;;12.50;47.60;;;;;;2085751;28;20309;-76
2021/01/11 00:24:27;;;;;;;;;;;12.70;48.00;;;;;;2085648;28;19925;-70
2021/01/11 00:25:29;;;;;;;;;;;12.80;47.90;;;;;;2084069;28;19964;-70
2021/01/11 00:26:30;;;;;;;;;;;12.80;47.80;;;;;;2084318;28;19985;-80
2021/01/11 00:27:32;;;;;;;;;;;12.70;47.60;;;;;;2084355;28;19933;-82
2021/01/11 00:28:34;;;;;;;;;;;12.40;47.70;;;;;;2084027;28;19932;-70
2021/01/11 00:29:37;;;;;;;;;;;12.60;48.30;;;;;;2084843;28;19925;-85
2021/01/11 00:30:38;;;;;;;;;;;12.60;48.30;;;;;;2084228;28;19976;-78
2021/01/11 00:31:40;;;;;;;;;;;12.60;48.10;;;;;;2083478;28;20010;-75
2021/01/11 00:32:43;;;;;;;;;;;12.70;48.10;;;;;;2075719;28;19957;-90
2021/01/11 00:33:44;;;;;;;;;;;12.80;47.90;;;;;;2083526;28;19971;-89
2021/01/11 00:34:46;;;;;;;;;;;12.90;47.70;;;;;;2083828;28;19928;-88
2021/01/11 00:35:47;;;;;;;;;;;12.60;47.40;;;;;;2083852;28;20405;-80
2021/01/11 00:36:57;;;;;;;;;;;12.60;47.90;;;;;;2083871;28;20341;-80
2021/01/11 00:37:59;;;;;;;;;;;12.60;47.90;;;;;;2083794;28;19926;-83
2021/01/11 00:39:01;;;;;;;;;;;12.50;47.90;;;;;;2083992;28;19933;-86
2021/01/11 00:40:03;;;;;;;;;;;12.60;48.20;;;;;;2084069;28;19929;-88
2021/01/11 00:41:04;;;;;;;;;;;12.60;48.00;;;;;;2084112;28;19939;-81
2021/01/11 00:42:05;;;;;;;;;;;12.70;48.10;;;;;;2084639;28;19929;-72
2021/01/11 00:43:09;;;;;;;;;;;12.70;48.00;;;;;;2083934;28;19925;-79
2021/01/11 00:44:11;;;;;;;;;;;12.70;48.00;;;;;;2083289;28;20384;-77
2021/01/11 00:45:14;;;;;;;;;;;12.70;47.90;;;;;;2083837;28;19956;-74
2021/01/11 00:46:25;;;;;;;;;;;12.60;47.80;;;;;;2084631;28;19925;-71
2021/01/11 00:47:29;;;;;;;;;;;12.60;47.90;;;;;;2084059;28;20007;-81
2021/01/11 00:48:33;;;;;;;;;;;12.50;47.80;;;;;;2083512;28;19956;-79
2021/01/11 00:49:34;;;;;;;;;;;12.60;48.10;;;;;;2082745;28;20476;-80
2021/01/11 00:50:37;;;;;;;;;;;12.60;48.10;;;;;;2081687;28;19987;-81
2021/01/11 00:51:39;;;;;;;;;;;12.70;47.90;;;;;;2075350;28;19968;-90
2021/01/11 00:52:41;;;;;;;;;;;12.70;47.90;;;;;;2082867;28;20393;-72
2021/01/11 00:53:44;;;;;;;;;;;12.60;47.60;;;;;;2083718;28;19978;-82
2021/01/11 00:54:47;;;;;;;;;;;12.60;48.00;;;;;;2083159;28;19951;-78
2021/01/11 00:55:49;;;;;;;;;;;12.70;48.10;;;;;;2075912;28;19925;-76
2021/01/11 00:56:50;;;;;;;;;;;12.70;47.80;;;;;;2076369;28;19925;-80
2021/01/11 00:57:52;;;;;;;;;;;12.70;47.90;;;;;;2075691;28;20246;-79
2021/01/11 00:58:53;;;;;;;;;;;12.80;48.30;;;;;;2074783;28;20378;-71
2021/01/11 00:59:55;;;;;;;;;;;12.80;47.60;;;;;;2075463;28;19926;-74
2021/01/11 01:00:56;;;;;;;;;;;12.60;47.60;;;;;;2075080;28;20296;-74
2021/01/11 01:01:58;;;;;;;;;;;12.60;47.80;;;;;;2074811;28;20381;-77
2021/01/11 01:02:59;;;;;;;;;;;12.70;47.90;;;;;;2082526;28;19995;-70
2021/01/11 01:04:03;;;;;;;;;;;12.60;48.00;;;;;;2083219;28;19925;-77
2021/01/11 01:05:05;;;;;;;;;;;12.70;47.80;;;;;;2084165;28;19928;-89
2021/01/11 01:06:09;;;;;;;;;;;12.80;47.80;;;;;;2083807;28;19929;-78
2021/01/11 01:07:10;;;;;;;;;;;12.70;47.60;;;;;;2083738;28;19933;-80
2021/01/11 01:08:11;;;;;;;;;;;12.60;47.10;;;;;;2083445;28;20297;-69
2021/01/11 01:09:14;;;;;;;;;;;12.60;47.90;;;;;;2083507;28;19983;-74
2021/01/11 01:10:15;;;;;;;;;;;12.50;47.90;;;;;;2083972;28;19929;-74
2021/01/11 01:11:17;;;;;;;;;;;12.70;48.00;;;;;;2083900;28;19926;-69
2021/01/11 01:12:19;;;;;;;;;;;12.70;47.90;;;;;;2083683;28;20027;-71
2021/01/11 01:13:20;;;;;;;;;;;12.70;47.80;;;;;;2083641;28;20012;-82
2021/01/11 01:14:22;;;;;;;;;;;12.70;47.70;;;;;;2083244;28;19925;-73
2021/01/11 01:15:24;;;;;;;;;;;12.80;47.70;;;;;;2083830;28;20321;-73
2021/01/11 01:16:26;;;;;;;;;;;12.80;47.60;;;;;;2083687;28;19929;-81
2021/01/11 01:17:28;;;;;;;;;;;12.80;47.30;;;;;;2084469;28;19925;-80
2021/01/11 01:18:29;;;;;;;;;;;12.70;47.40;;;;;;2084269;28;20324;-74
2021/01/11 01:19:32;;;;;;;;;;;12.70;47.70;;;;;;2083499;28;19925;-83
2021/01/11 01:20:35;;;;;;;;;;;12.60;47.70;;;;;;2083795;28;20020;-77
2021/01/11 01:21:36;;;;;;;;;;;12.60;47.70;;;;;;2083099;28;19929;-71
2021/01/11 01:22:38;;;;;;;;;;;12.70;47.80;;;;;;2083691;28;19925;-74
2021/01/11 01:23:39;;;;;;;;;;;12.70;47.70;;;;;;2084161;28;19925;-75
2021/01/11 01:24:41;;;;;;;;;;;12.70;47.40;;;;;;2084246;28;20354;-69
2021/01/11 01:25:44;;;;;;;;;;;12.70;47.60;;;;;;2083430;28;19925;-79
2021/01/11 01:26:45;;;;;;;;;;;12.60;47.60;;;;;;2084798;28;20305;-76
2021/01/11 01:27:47;;;;;;;;;;;12.60;47.60;;;;;;2085396;28;19925;-82
2021/01/11 01:28:48;;;;;;;;;;;12.60;47.80;;;;;;2084853;28;19963;-82
2021/01/11 01:29:50;;;;;;;;;;;12.60;47.40;;;;;;2085075;28;19932;-77
2021/01/11 01:30:51;;;;;;;;;;;12.60;47.80;;;;;;2086012;28;19932;-72
2021/01/11 01:31:53;;;;;;;;;;;12.60;47.80;;;;;;2085103;28;19925;-74
2021/01/11 01:32:56;;;;;;;;;;;12.60;47.70;;;;;;2084280;28;19932;-87
2021/01/11 01:33:59;;;;;;;;;;;12.60;47.60;;;;;;2084325;28;20020;-83
2021/01/11 01:35:02;;;;;;;;;;;12.50;48.20;;;;;;2084803;28;19948;-81
2021/01/11 01:36:04;;;;;;;;;;;12.30;48.00;;;;;;2084551;28;19925;-88
2021/01/11 01:37:05;;;;;;;;;;;12.10;48.10;;;;;;2085394;28;19925;-81
2021/01/11 01:38:12;;;;;;;;;;;12.20;47.80;;;;;;2085055;28;19932;-78
2021/01/11 01:39:13;;;;;;;;;;;12.40;48.60;;;;;;2085190;28;19925;-84
2021/01/11 01:40:15;;;;;;;;;;;12.50;48.30;;;;;;2085315;28;20266;-86
2021/01/11 01:41:17;;;;;;;;;;;12.60;48.10;;;;;;2085259;28;19925;-78
2021/01/11 01:42:19;;;;;;;;;;;12.50;48.00;;;;;;2085495;28;19925;-78
2021/01/11 01:43:20;;;;;;;;;;;12.50;48.10;;;;;;2085236;28;19932;-89
2021/01/11 01:44:22;;;;;;;;;;;12.50;48.20;;;;;;2085101;28;19932;-85
2021/01/11 01:45:23;;;;;;;;;;;12.50;48.00;;;;;;2084979;28;19925;-76
2021/01/11 01:46:28;;;;;;;;;;;12.40;48.20;;;;;;2085813;28;19989;-87
2021/01/11 01:47:30;;;;;;;;;;;12.40;48.10;;;;;;2085905;28;19925;-87
2021/01/11 01:48:33;;;;;;;;;;;12.40;47.90;;;;;;2086161;28;19925;-82
2021/01/11 01:49:34;;;;;;;;;;;12.30;48.20;;;;;;2086532;28;20258;-91
2021/01/11 01:50:37;;;;;;;;;;;12.10;48.80;;;;;;2087202;28;19938;-83
2021/01/11 01:51:39;;;;;;;;;;;12.10;49.00;;;;;;2087720;28;19932;-87
2021/01/11 01:52:42;;;;;;;;;;;12.10;49.00;;;;;;2095896;28;19932;-79
2021/01/11 01:53:47;;;;;;;;;;;12.10;49.10;;;;;;2096448;28;19931;-73
2021/01/11 01:54:49;;;;;;;;;;;12.20;49.00;;;;;;2095186;28;19925;-70
2021/01/11 01:55:50;;;;;;;;;;;12.20;48.80;;;;;;2088643;28;19925;-74
2021/01/11 01:56:52;;;;;;;;;;;12.20;48.90;;;;;;2087601;28;19932;-74
2021/01/11 01:57:55;;;;;;;;;;;12.20;49.00;;;;;;2086776;28;19925;-77
2021/01/11 01:58:57;;;;;;;;;;;12.30;48.80;;;;;;2086843;28;19988;-80
2021/01/11 01:59:59;;;;;;;;;;;12.30;48.50;;;;;;2087475;28;19925;-81
2021/01/11 02:01:00;;;;;;;;;;;12.20;48.60;;;;;;2086282;28;20152;-79
2021/01/11 02:02:03;;;;;;;;;;;12.30;49.30;;;;;;2085739;28;19925;-79
2021/01/11 02:03:05;;;;;;;;;;;12.30;48.60;;;;;;2077505;28;19937;-85
2021/01/11 02:04:07;;;;;;;;;;;12.40;48.60;;;;;;2077455;28;19926;-79
2021/01/11 02:05:08;;;;;;;;;;;12.50;48.50;;;;;;2076843;28;19929;-90
2021/01/11 02:06:11;;;;;;;;;;;12.40;48.10;;;;;;2068635;28;19956;-74
2021/01/11 02:07:16;;;;;;;;;;;12.40;48.20;;;;;;2076941;28;19925;-85
2021/01/11 02:08:22;;;;;;;;;;;12.50;48.50;;;;;;2077439;28;20393;-80
2021/01/11 02:09:33;;;;;;;;;;;12.20;48.00;;;;;;2076085;28;19933;-86
2021/01/11 02:10:46;;;;;;;;;;;12.20;48.70;;;;;;2076365;28;19953;-87
2021/01/11 02:11:49;;;;;;;;;;;12.40;48.60;;;;;;2075729;28;20377;-80
2021/01/11 02:12:59;;;;;;;;;;;12.60;48.40;;;;;;2075753;28;19925;-85
2021/01/11 02:14:08;;;;;;;;;;;12.60;48.20;;;;;;2075018;28;19933;-77
2021/01/11 02:15:10;;;;;;;;;;;12.60;48.10;;;;;;2074421;28;19925;-76
2021/01/11 02:16:15;;;;;;;;;;;12.60;48.00;;;;;;2075376;28;19932;-86
2021/01/11 02:17:28;;;;;;;;;;;12.60;47.90;;;;;;2074276;28;19929;-70
2021/01/11 02:18:37;;;;;;;;;;;12.50;47.70;;;;;;2075252;28;20373;-72
2021/01/11 02:19:57;;;;;;;;;;;12.60;48.10;;;;;;2075045;28;19926;-80
2021/01/11 02:21:13;;;;;;;;;;;12.70;48.00;;;;;;2075171;28;19937;-70
2021/01/11 02:22:21;;;;;;;;;;;12.80;47.90;;;;;;2076744;28;19925;-80
2021/01/11 02:23:41;;;;;;;;;;;12.70;47.80;;;;;;2077700;28;19932;-69
2021/01/11 02:25:02;;;;;;;;;;;12.70;47.80;;;;;;2077679;28;19926;-72
2021/01/11 02:26:14;;;;;;;;;;;12.70;47.70;;;;;;2084838;28;19925;-72
2021/01/11 02:27:46;;;;;;;;;;;12.80;47.80;;;;;;2087645;28;19929;-69
2021/01/11 02:28:54;;;;;;;;;;;12.80;47.70;;;;;;2063193;28;20068;-77
2021/01/11 02:30:05;;;;;;;;;;;12.90;47.40;;;;;;2062801;28;19933;-73
2021/01/11 02:31:07;;;;;;;;;;;12.90;47.40;;;;;;2070776;28;19926;-70
2021/01/11 02:32:09;;;;;;;;;;;12.90;47.40;;;;;;2087694;28;19925;-72
2021/01/11 02:33:12;;;;;;;;;;;12.90;47.40;;;;;;2087520;28;19929;-78
2021/01/11 02:34:14;;;;;;;;;;;12.90;47.30;;;;;;2086812;28;19937;-87
2021/01/11 02:35:18;;;;;;;;;;;12.90;47.20;;;;;;2084995;28;20377;-81
2021/01/11 02:36:22;;;;;;;;;;;12.90;47.20;;;;;;2084690;28;19932;-74
2021/01/11 02:37:24;;;;;;;;;;;13.00;47.20;;;;;;2084071;28;19971;-86
2021/01/11 02:38:26;;;;;;;;;;;13.10;47.20;;;;;;2084265;28;19929;-73
2021/01/11 02:39:27;;;;;;;;;;;13.00;47.00;;;;;;2084161;28;20294;-88
2021/01/11 02:40:29;;;;;;;;;;;13.00;47.00;;;;;;2084318;28;19925;-85
2021/01/11 02:41:32;;;;;;;;;;;13.00;47.00;;;;;;2084131;28;19929;-84
2021/01/11 02:42:34;;;;;;;;;;;13.00;46.90;;;;;;2083975;28;19933;-79
2021/01/11 02:43:35;;;;;;;;;;;13.00;47.10;;;;;;2084554;28;20380;-85
2021/01/11 02:44:37;;;;;;;;;;;12.80;47.00;;;;;;2085559;28;20400;-82
2021/01/11 02:45:40;;;;;;;;;;;13.00;47.20;;;;;;2085483;28;19971;-80
2021/01/11 02:46:42;;;;;;;;;;;13.10;47.10;;;;;;2085198;28;19932;-80
2021/01/11 02:47:53;;;;;;;;;;;13.00;46.90;;;;;;2085273;28;19932;-71
2021/01/11 02:48:56;;;;;;;;;;;13.10;46.80;;;;;;2085232;28;19925;-85
2021/01/11 02:49:59;;;;;;;;;;;13.10;46.90;;;;;;2083991;28;19925;-78
2021/01/11 02:51:06;;;;;;;;;;;12.90;46.90;;;;;;2082692;28;19933;-82
2021/01/11 02:52:10;;;;;;;;;;;12.60;47.40;;;;;;2087723;28;19932;-80
2021/01/11 02:53:20;;;;;;;;;;;12.80;47.60;;;;;;2092311;28;19925;-86
2021/01/11 02:54:24;;;;;;;;;;;12.90;47.10;;;;;;2091972;28;20297;-79
2021/01/11 02:55:33;;;;;;;;;;;13.00;47.20;;;;;;2085648;28;20424;-77
2021/01/11 02:56:40;;;;;;;;;;;12.90;47.30;;;;;;2084127;28;19932;-75
2021/01/11 02:57:46;;;;;;;;;;;13.00;47.30;;;;;;2083997;28;19925;-90
2021/01/11 02:58:59;;;;;;;;;;;12.90;47.30;;;;;;2084132;28;19949;-83
2021/01/11 03:00:04;;;;;;;;;;;12.80;46.90;;;;;;2083669;28;19925;-79
2021/01/11 03:01:07;;;;;;;;;;;12.90;47.60;;;;;;2083777;28;19925;-76
2021/01/11 03:02:10;;;;;;;;;;;13.00;47.50;;;;;;2082854;28;20054;-81
2021/01/11 03:03:14;;;;;;;;;;;12.90;47.10;;;;;;2074798;28;19932;-87
2021/01/11 03:04:20;;;;;;;;;;;13.10;47.20;;;;;;2075229;28;19949;-77
2021/01/11 03:05:22;;;;;;;;;;;13.20;47.10;;;;;;2076037;28;19929;-84
2021/01/11 03:06:28;;;;;;;;;;;13.20;46.80;;;;;;2075603;28;20499;-77
2021/01/11 03:07:30;;;;;;;;;;;13.10;46.80;;;;;;2075224;28;20012;-78
2021/01/11 03:08:32;;;;;;;;;;;13.10;46.80;;;;;;2075758;28;19930;-84
2021/01/11 03:09:37;;;;;;;;;;;13.10;46.80;;;;;;2076393;28;20319;-74
2021/01/11 03:10:39;;;;;;;;;;;13.20;46.90;;;;;;2077431;28;19933;-84
2021/01/11 03:11:40;;;;;;;;;;;13.20;46.70;;;;;;2077773;28;19944;-78
2021/01/11 03:12:41;;;;;;;;;;;13.30;46.60;;;;;;2077305;28;19933;-80
2021/01/11 03:13:43;;;;;;;;;;;13.30;46.50;;;;;;2076715;28;19933;-76
2021/01/11 03:14:44;;;;;;;;;;;13.10;46.40;;;;;;2077070;28;20287;-82
2021/01/11 03:15:46;;;;;;;;;;;13.10;46.80;;;;;;2077811;28;19926;-75
2021/01/11 03:16:48;;;;;;;;;;;13.10;46.90;;;;;;2077011;28;19932;-79
2021/01/11 03:17:50;;;;;;;;;;;13.10;47.00;;;;;;2077729;28;19925;-75
2021/01/11 03:18:51;;;;;;;;;;;12.90;46.60;;;;;;2077907;28;19925;-75
2021/01/11 03:19:53;;;;;;;;;;;13.10;47.10;;;;;;2077891;28;19925;-79
2021/01/11 03:20:54;;;;;;;;;;;13.20;47.00;;;;;;2077893;28;19926;-87
2021/01/11 03:21:56;;;;;;;;;;;13.20;46.80;;;;;;2077822;28;19925;-82
2021/01/11 03:22:57;;;;;;;;;;;13.30;46.60;;;;;;2078006;28;20270;-76
2021/01/11 03:23:59;;;;;;;;;;;12.90;46.50;;;;;;2077600;28;19932;-84
2021/01/11 03:25:00;;;;;;;;;;;12.50;46.80;;;;;;2077517;28;20294;-84
2021/01/11 03:26:02;;;;;;;;;;;12.30;48.20;;;;;;2077752;28;19926;-82
2021/01/11 03:27:04;;;;;;;;;;;12.60;48.50;;;;;;2077354;28;19925;-78
2021/01/11 03:28:06;;;;;;;;;;;12.80;48.20;;;;;;2077524;28;20358;-79
2021/01/11 03:29:07;;;;;;;;;;;12.80;47.70;;;;;;2077516;28;19926;-72
2021/01/11 03:30:10;;;;;;;;;;;12.90;47.80;;;;;;2077704;28;19929;-74
2021/01/11 03:31:12;;;;;;;;;;;12.80;47.40;;;;;;2078194;28;19925;-79
2021/01/11 03:32:17;;;;;;;;;;;12.90;47.60;;;;;;2079155;28;19940;-73
2021/01/11 03:33:18;;;;;;;;;;;12.90;47.60;;;;;;2078322;28;20290;-85
2021/01/11 03:34:20;;;;;;;;;;;13.00;47.30;;;;;;2078376;28;19949;-81
2021/01/11 03:35:21;;;;;;;;;;;12.90;47.30;;;;;;2079068;28;19926;-85
2021/01/11 03:36:23;;;;;;;;;;;13.00;47.20;;;;;;2079659;28;19925;-85
2021/01/11 03:37:24;;;;;;;;;;;13.00;47.20;;;;;;2080754;28;19936;-80
2021/01/11 03:38:25;;;;;;;;;;;13.10;47.20;;;;;;2080587;28;19929;-93
2021/01/11 03:39:27;;;;;;;;;;;12.90;47.20;;;;;;2080242;28;19926;-73
2021/01/11 03:40:28;;;;;;;;;;;12.50;47.30;;;;;;2080463;28;19926;-85
2021/01/11 03:41:32;;;;;;;;;;;12.60;48.00;;;;;;2080326;28;19934;-79
2021/01/11 03:42:36;;;;;;;;;;;12.60;48.20;;;;;;2080181;28;19925;-82
2021/01/11 03:43:38;;;;;;;;;;;12.60;48.60;;;;;;2080156;28;19926;-86
2021/01/11 03:44:39;;;;;;;;;;;12.70;48.40;;;;;;2079323;28;19933;-91
2021/01/11 03:45:41;;;;;;;;;;;12.70;48.10;;;;;;2078838;28;20187;-87
2021/01/11 03:46:42;;;;;;;;;;;12.50;47.90;;;;;;2078534;28;19951;-83
2021/01/11 03:47:45;;;;;;;;;;;12.50;48.40;;;;;;2078205;28;19925;-85
2021/01/11 03:48:47;;;;;;;;;;;12.40;48.40;;;;;;2077998;28;19925;-85
2021/01/11 03:49:48;;;;;;;;;;;12.50;48.50;;;;;;2078103;28;20298;-84
2021/01/11 03:50:50;;;;;;;;;;;12.40;48.70;;;;;;2080979;28;19925;-75
2021/01/11 03:51:52;;;;;;;;;;;12.60;48.50;;;;;;2087160;28;19925;-89
2021/01/11 03:52:54;;;;;;;;;;;12.70;48.40;;;;;;2094587;28;19932;-85
2021/01/11 03:53:55;;;;;;;;;;;12.90;48.10;;;;;;2093491;28;20281;-80
2021/01/11 03:54:56;;;;;;;;;;;12.70;47.70;;;;;;2090504;28;20007;-84
2021/01/11 03:56:03;;;;;;;;;;;12.50;47.90;;;;;;2085123;28;19925;-73
2021/01/11 03:57:05;;;;;;;;;;;12.30;48.10;;;;;;2083033;28;19925;-85
2021/01/11 03:58:06;;;;;;;;;;;12.30;48.60;;;;;;2082951;28;19929;-80
2021/01/11 03:59:08;;;;;;;;;;;12.30;49.00;;;;;;2083452;28;19925;-76
2021/01/11 04:00:10;;;;;;;;;;;12.20;49.00;;;;;;2083551;28;20301;-76
2021/01/11 04:01:14;;;;;;;;;;;12.40;49.20;;;;;;2083420;28;19975;-86
2021/01/11 04:02:15;;;;;;;;;;;12.50;48.90;;;;;;2083115;28;20492;-83
2021/01/11 04:03:18;;;;;;;;;;;12.20;48.60;;;;;;2082821;28;19941;-74
2021/01/11 04:04:19;;;;;;;;;;;12.30;49.00;;;;;;2084946;28;19925;-82
2021/01/11 04:05:21;;;;;;;;;;;12.20;49.10;;;;;;2083909;28;19925;-71
2021/01/11 04:06:24;;;;;;;;;;;12.40;49.20;;;;;;2083315;28;19925;-84
2021/01/11 04:07:26;;;;;;;;;;;12.20;49.20;;;;;;2083331;28;19925;-75
2021/01/11 04:08:28;;;;;;;;;;;12.30;49.40;;;;;;2084781;28;19984;-81
2021/01/11 04:09:30;;;;;;;;;;;11.90;49.00;;;;;;2086138;28;19925;-81
2021/01/11 04:10:34;;;;;;;;;;;12.10;49.60;;;;;;2086294;28;19925;-83
2021/01/11 04:11:35;;;;;;;;;;;12.10;49.60;;;;;;2084885;28;19929;-84
2021/01/11 04:12:37;;;;;;;;;;;11.90;49.60;;;;;;2085260;28;19932;-75
2021/01/11 04:13:38;;;;;;;;;;;12.00;49.40;;;;;;2084394;28;20408;-86
2021/01/11 04:14:41;;;;;;;;;;;12.00;50.00;;;;;;2084007;28;19925;-81
2021/01/11 04:15:42;;;;;;;;;;;12.00;49.50;;;;;;2083299;28;20397;-72
2021/01/11 04:16:44;;;;;;;;;;;12.20;50.20;;;;;;2083409;28;19940;-86
2021/01/11 04:17:48;;;;;;;;;;;12.30;49.50;;;;;;2084294;28;19929;-82
2021/01/11 04:18:51;;;;;;;;;;;12.30;49.20;;;;;;2083748;28;19925;-87
2021/01/11 04:19:53;;;;;;;;;;;12.20;49.30;;;;;;2084348;28;20004;-88
2021/01/11 04:20:55;;;;;;;;;;;12.20;49.60;;;;;;2083942;28;19925;-79
2021/01/11 04:21:56;;;;;;;;;;;12.20;49.60;;;;;;2084129;28;19951;-93
2021/01/11 04:22:58;;;;;;;;;;;12.30;49.70;;;;;;2084214;28;19932;-87
2021/01/11 04:24:00;;;;;;;;;;;12.40;49.40;;;;;;2084530;28;19933;-82
2021/01/11 04:25:02;;;;;;;;;;;12.60;49.20;;;;;;2084454;28;19925;-79
2021/01/11 04:26:06;;;;;;;;;;;12.70;48.80;;;;;;2084166;28;19936;-81
2021/01/11 04:27:07;;;;;;;;;;;12.80;48.30;;;;;;2084285;28;19925;-86
2021/01/11 04:28:09;;;;;;;;;;;12.50;48.90;;;;;;2085457;28;19944;-82
2021/01/11 04:29:13;;;;;;;;;;;12.40;48.80;;;;;;2085136;28;19925;-83
2021/01/11 04:30:19;;;;;;;;;;;12.30;49.00;;;;;;2084843;28;19948;-87
2021/01/11 04:31:22;;;;;;;;;;;12.30;49.10;;;;;;2085375;28;19925;-75
2021/01/11 04:32:24;;;;;;;;;;;12.30;49.40;;;;;;2084870;28;20019;-79
2021/01/11 04:33:25;;;;;;;;;;;12.50;49.40;;;;;;2083635;28;19936;-91
2021/01/11 04:34:28;;;;;;;;;;;12.70;49.00;;;;;;2083138;28;19925;-71
2021/01/11 04:35:29;;;;;;;;;;;12.70;48.50;;;;;;2083234;28;19925;-87
2021/01/11 04:36:33;;;;;;;;;;;12.70;48.40;;;;;;2083670;28;19925;-74
2021/01/11 04:37:35;;;;;;;;;;;12.70;48.60;;;;;;2083595;28;19947;-81
2021/01/11 04:38:37;;;;;;;;;;;12.50;48.10;;;;;;2083417;28;20011;-77
2021/01/11 04:39:39;;;;;;;;;;;12.60;48.80;;;;;;2083461;28;19929;-75
2021/01/11 04:40:41;;;;;;;;;;;12.50;48.60;;;;;;2083642;28;19925;-90
2021/01/11 04:41:43;;;;;;;;;;;12.60;48.60;;;;;;2084178;28;19925;-79
2021/01/11 04:42:49;;;;;;;;;;;12.50;48.60;;;;;;2083558;28;19972;-82
2021/01/11 04:43:52;;;;;;;;;;;12.80;48.60;;;;;;2083682;28;19932;-81
2021/01/11 04:44:56;;;;;;;;;;;12.70;48.50;;;;;;2085041;28;20000;-69
2021/01/11 04:46:00;;;;;;;;;;;12.80;48.40;;;;;;2084913;28;19948;-77
2021/01/11 04:47:02;;;;;;;;;;;12.80;48.30;;;;;;2084478;28;19925;-81
2021/01/11 04:48:04;;;;;;;;;;;12.70;48.20;;;;;;2085787;28;20011;-75
2021/01/11 04:49:06;;;;;;;;;;;12.50;48.70;;;;;;2086683;28;19925;-76
2021/01/11 04:50:09;;;;;;;;;;;12.80;48.70;;;;;;2087426;28;19925;-83
2021/01/11 04:51:14;;;;;;;;;;;12.90;48.40;;;;;;2086266;28;19925;-72
2021/01/11 04:52:18;;;;;;;;;;;12.90;48.10;;;;;;2092525;28;19925;-78
2021/01/11 04:53:20;;;;;;;;;;;12.90;48.60;;;;;;2095678;28;19925;-81
2021/01/11 04:54:22;;;;;;;;;;;12.70;47.90;;;;;;2096678;28;19924;-70
2021/01/11 04:55:23;;;;;;;;;;;12.60;48.10;;;;;;2083912;28;19925;-74
2021/01/11 04:56:25;;;;;;;;;;;12.60;48.50;;;;;;2079897;28;19925;-81
2021/01/11 04:57:33;;;;;;;;;;;12.50;48.60;;;;;;2079401;28;19925;-71
2021/01/11 04:58:54;;;;;;;;;;;12.80;48.70;;;;;;2079622;28;19926;-80
2021/01/11 05:00:00;;;;;;;;;;;12.90;48.40;;;;;;2080330;28;19925;-75
2021/01/11 05:01:06;;;;;;;;;;;12.90;48.20;;;;;;2080004;28;19933;-79
2021/01/11 05:02:11;;;;;;;;;;;12.90;47.80;;;;;;2079673;28;19932;-81
2021/01/11 05:03:12;;;;;;;;;;;12.60;48.10;;;;;;2086672;28;19947;-81
2021/01/11 05:04:14;;;;;;;;;;;12.80;48.50;;;;;;2085365;28;19986;-75
2021/01/11 05:05:19;;;;;;;;;;;12.80;48.40;;;;;;2085739;28;19929;-83
2021/01/11 05:06:21;;;;;;;;;;;12.60;48.40;;;;;;2085232;28;19926;-78
2021/01/11 05:07:23;;;;;;;;;;;12.60;48.80;;;;;;2085622;28;19925;-80
2021/01/11 05:08:27;;;;;;;;;;;12.80;48.70;;;;;;2085323;28;19925;-88
2021/01/11 05:09:29;;;;;;;;;;;12.90;48.60;;;;;;2085597;28;19929;-78
2021/01/11 05:10:31;;;;;;;;;;;12.90;48.20;;;;;;2085762;28;19932;-78
2021/01/11 05:11:33;;;;;;;;;;;12.80;48.10;;;;;;2086035;28;19932;-78
2021/01/11 05:12:35;;;;;;;;;;;12.70;48.20;;;;;;2085166;28;19925;-91
2021/01/11 05:13:39;;;;;;;;;;;12.60;48.40;;;;;;2085055;28;19925;-86
2021/01/11 05:14:40;;;;;;;;;;;12.70;48.90;;;;;;2086269;28;20369;-89
2021/01/11 05:15:42;;;;;;;;;;;12.70;48.40;;;;;;2086405;28;19929;-81
2021/01/11 05:16:57;;;;;;;;;;;12.60;48.70;;;;;;2086871;28;19925;-82
2021/01/11 05:18:00;;;;;;;;;;;12.60;48.80;;;;;;2087295;28;19925;-84
2021/01/11 05:19:16;;;;;;;;;;;12.40;48.70;;;;;;2087487;28;19932;-83
2021/01/11 05:20:21;;;;;;;;;;;12.20;49.10;;;;;;2087225;28;19925;-78
2021/01/11 05:21:38;;;;;;;;;;;12.30;49.60;;;;;;2087126;28;19950;-77
2021/01/11 05:22:40;;;;;;;;;;;12.30;49.40;;;;;;2087241;28;19925;-84
2021/01/11 05:23:41;;;;;;;;;;;12.20;49.30;;;;;;2087221;28;19926;-73
2021/01/11 05:24:45;;;;;;;;;;;12.30;49.60;;;;;;2086785;28;19925;-72
2021/01/11 05:25:47;;;;;;;;;;;12.20;49.30;;;;;;2087552;28;19925;-82
2021/01/11 05:26:51;;;;;;;;;;;12.30;49.40;;;;;;2087934;28;19936;-91
2021/01/11 05:28:07;;;;;;;;;;;12.00;49.50;;;;;;2087777;28;19925;-87
2021/01/11 05:29:40;;;;;;;;;;;12.00;50.50;;;;;;2087432;28;20292;-72
2021/01/11 05:30:42;;;;;;;;;;;12.00;50.40;;;;;;2087761;28;19925;-76
2021/01/11 05:31:51;;;;;;;;;;;12.20;50.10;;;;;;2088250;28;19925;-77
2021/01/11 05:32:54;;;;;;;;;;;12.30;49.90;;;;;;2087382;28;19926;-77
2021/01/11 05:33:56;;;;;;;;;;;12.50;49.50;;;;;;2087424;28;19929;-75
2021/01/11 05:34:57;;;;;;;;;;;12.70;49.20;;;;;;2087626;28;19932;-73
2021/01/11 05:36:05;;;;;;;;;;;12.50;49.20;;;;;;2087923;28;19925;-83
2021/01/11 05:37:39;;;;;;;;;;;12.30;49.50;;;;;;2088025;28;19926;-77
2021/01/11 05:38:45;;;;;;;;;;;12.10;49.20;;;;;;2077832;28;19925;-76
2021/01/11 05:39:46;;;;;;;;;;;12.50;49.50;;;;;;2086868;28;20297;-84
2021/01/11 05:40:48;;;;;;;;;;;12.80;49.10;;;;;;2086132;28;19925;-86
2021/01/11 05:41:50;;;;;;;;;;;12.80;48.60;;;;;;2086573;28;20373;-83
2021/01/11 05:42:52;;;;;;;;;;;12.90;49.10;;;;;;2086921;28;19932;-73
2021/01/11 05:44:09;;;;;;;;;;;12.90;48.50;;;;;;2087010;28;19925;-91
2021/01/11 05:45:12;;;;;;;;;;;13.00;48.40;;;;;;2088167;28;19925;-81
2021/01/11 05:46:24;;;;;;;;;;;13.00;48.20;;;;;;2087587;28;19936;-76
2021/01/11 05:47:26;;;;;;;;;;;13.10;48.20;;;;;;2086987;28;20487;-90
2021/01/11 05:48:28;;;;;;;;;;;13.20;47.90;;;;;;2087097;28;19925;-79
2021/01/11 05:49:29;;;;;;;;;;;13.30;47.60;;;;;;2087207;28;19926;-82
2021/01/11 05:50:33;;;;;;;;;;;13.10;47.40;;;;;;2088311;28;19925;-87
2021/01/11 05:51:35;;;;;;;;;;;13.10;47.90;;;;;;2087549;28;19932;-79
2021/01/11 05:52:37;;;;;;;;;;;13.10;47.80;;;;;;2086791;28;19925;-82
2021/01/11 05:53:40;;;;;;;;;;;13.00;47.80;;;;;;2087330;28;19932;-76
2021/01/11 05:54:44;;;;;;;;;;;13.00;47.70;;;;;;2087383;28;19925;-75
2021/01/11 05:55:46;;;;;;;;;;;13.00;48.40;;;;;;2087500;28;19936;-88
2021/01/11 05:56:51;;;;;;;;;;;13.10;48.10;;;;;;2086679;28;19925;-80
2021/01/11 05:58:03;;;;;;;;;;;13.00;48.00;;;;;;2087073;28;19936;-72
2021/01/11 05:59:06;;;;;;;;;;;13.00;48.20;;;;;;2087568;28;19925;-85
2021/01/11 06:00:08;;;;;;;;;;;13.10;48.20;;;;;;2087407;28;19925;-84
2021/01/11 06:01:09;;;;;;;;;;;13.00;47.90;;;;;;2087165;28;19978;-77
2021/01/11 06:02:12;;;;;;;;;;;12.90;48.20;;;;;;2087168;28;19925;-78
2021/01/11 06:03:14;;;;;;;;;;;12.90;48.10;;;;;;2086925;28;20301;-79
2021/01/11 06:04:15;;;;;;;;;;;12.90;48.30;;;;;;2087134;28;19925;-73
2021/01/11 06:05:18;;;;;;;;;;;13.10;48.20;;;;;;2087981;28;19932;-86
2021/01/11 06:06:20;;;;;;;;;;;13.20;48.00;;;;;;2086994;28;19986;-80
2021/01/11 06:07:23;;;;;;;;;;;13.20;47.90;;;;;;2086592;28;19925;-72
2021/01/11 06:08:25;;;;;;;;;;;13.20;47.90;;;;;;2086050;28;19925;-90
2021/01/11 06:09:26;;;;;;;;;;;13.10;47.70;;;;;;2086071;28;20108;-79